createdAt,value
2019-05-12T00:00:58.393Z,1022.90
2019-05-12T00:01:58.602Z,1022.89
2019-05-12T00:02:56.087Z,1022.96
2019-05-12T00:03:58.015Z,1022.95
2019-05-12T00:04:58.193Z,1022.93
2019-05-12T00:05:57.763Z,1022.90
2019-05-12T00:06:58.460Z,1022.89
2019-05-12T00:07:58.718Z,1022.92
2019-05-12T00:08:57.950Z,1022.90
2019-05-12T00:09:58.202Z,1022.88
2019-05-12T00:10:58.293Z,1022.91
2019-05-12T00:11:59.005Z,1022.96
2019-05-12T00:12:58.206Z,1022.93
2019-05-12T00:13:58.595Z,1022.96
2019-05-12T00:14:58.916Z,1022.96
2019-05-12T00:15:58.417Z,1023.02
2019-05-12T00:16:58.043Z,1023.01
2019-05-12T00:17:58.696Z,1023.00
2019-05-12T00:18:58.626Z,1023.02
2019-05-12T00:19:58.482Z,1023.06
2019-05-12T00:20:57.915Z,1023.05
2019-05-12T00:21:58.718Z,1023.07
2019-05-12T00:22:58.130Z,1023.03
2019-05-12T00:23:58.202Z,1023.07
2019-05-12T00:24:58.360Z,1023.06
2019-05-12T00:25:58.832Z,1023.07
2019-05-12T00:26:58.071Z,1023.06
2019-05-12T00:27:58.608Z,1023.10
2019-05-12T00:28:58.839Z,1023.15
2019-05-12T00:29:57.897Z,1023.12
2019-05-12T00:30:58.140Z,1023.20
2019-05-12T00:31:58.085Z,1023.22
2019-05-12T00:32:58.138Z,1023.25
2019-05-12T00:33:58.684Z,1023.27
2019-05-12T00:34:58.541Z,1023.26
2019-05-12T00:35:58.715Z,1023.29
2019-05-12T00:36:58.150Z,1023.31
2019-05-12T00:37:58.212Z,1023.34
2019-05-12T00:38:58.362Z,1023.34
2019-05-12T00:39:58.333Z,1023.36
2019-05-12T00:40:58.508Z,1023.36
2019-05-12T00:41:58.745Z,1023.40
2019-05-12T00:42:58.544Z,1023.42
2019-05-12T00:43:58.582Z,1023.47
2019-05-12T00:44:58.660Z,1023.41
2019-05-12T00:45:58.826Z,1023.43
2019-05-12T00:46:58.753Z,1023.43
2019-05-12T00:47:58.818Z,1023.47
2019-05-12T00:48:58.880Z,1023.51
2019-05-12T00:49:58.950Z,1023.47
2019-05-12T00:50:58.997Z,1023.50
2019-05-12T00:51:59.066Z,1023.56
2019-05-12T00:52:59.134Z,1023.57
2019-05-12T00:53:59.362Z,1023.58
2019-05-12T00:54:59.238Z,1023.62
2019-05-12T00:55:59.298Z,1023.63
2019-05-12T00:56:59.359Z,1023.71
2019-05-12T00:57:59.422Z,1023.71
2019-05-12T00:58:59.486Z,1023.68
2019-05-12T00:59:59.554Z,1023.74
2019-05-12T01:00:59.821Z,1023.70
2019-05-12T01:01:59.663Z,1023.73
2019-05-12T01:02:59.722Z,1023.72
2019-05-12T01:03:59.791Z,1023.73
2019-05-12T01:04:59.851Z,1023.77
2019-05-12T01:05:59.903Z,1023.74
2019-05-12T01:06:59.970Z,1023.75
2019-05-12T01:08:00.023Z,1023.76
2019-05-12T01:09:00.095Z,1023.80
2019-05-12T01:10:01.422Z,1023.75
2019-05-12T01:11:00.208Z,1023.79
2019-05-12T01:12:00.268Z,1023.83
2019-05-12T01:13:00.327Z,1023.85
2019-05-12T01:14:00.391Z,1023.86
2019-05-12T01:15:00.459Z,1023.86
2019-05-12T01:16:00.513Z,1023.85
2019-05-12T01:17:00.567Z,1023.95
2019-05-12T01:18:00.627Z,1023.90
2019-05-12T01:19:00.695Z,1023.94
2019-05-12T01:20:00.758Z,1023.93
2019-05-12T01:21:00.807Z,1023.98
2019-05-12T01:22:00.871Z,1023.98
2019-05-12T01:23:00.930Z,1023.98
2019-05-12T01:24:03.456Z,1024.05
2019-05-12T01:25:01.081Z,1024.05
2019-05-12T01:26:01.110Z,1024.08
2019-05-12T01:27:01.172Z,1024.12
2019-05-12T01:28:01.233Z,1024.11
2019-05-12T01:29:01.399Z,1024.16
2019-05-12T01:30:01.353Z,1024.15
2019-05-12T01:31:01.412Z,1024.19
2019-05-12T01:32:01.472Z,1024.20
2019-05-12T01:33:01.532Z,1024.20
2019-05-12T01:34:01.605Z,1024.23
2019-05-12T01:35:01.664Z,1024.27
2019-05-12T01:36:01.712Z,1024.27
2019-05-12T01:37:01.773Z,1024.29
2019-05-12T01:38:01.836Z,1024.29
2019-05-12T01:39:01.997Z,1024.31
2019-05-12T01:40:01.967Z,1024.30
2019-05-12T01:41:02.012Z,1024.34
2019-05-12T01:42:02.072Z,1024.31
2019-05-12T01:43:02.140Z,1024.32
2019-05-12T01:44:02.196Z,1024.29
2019-05-12T01:45:02.268Z,1024.27
2019-05-12T01:46:02.318Z,1024.27
2019-05-12T01:47:02.376Z,1024.27
2019-05-12T01:48:02.437Z,1024.29
2019-05-12T01:49:02.497Z,1024.35
2019-05-12T01:50:02.591Z,1024.33
2019-05-12T01:51:02.625Z,1024.34
2019-05-12T01:52:02.678Z,1024.35
2019-05-12T01:53:02.737Z,1024.36
2019-05-12T01:54:11.638Z,1024.38
2019-05-12T01:55:02.866Z,1024.42
2019-05-12T01:56:02.927Z,1024.42
2019-05-12T01:57:02.977Z,1024.47
2019-05-12T01:58:03.041Z,1024.52
2019-05-12T01:59:03.101Z,1024.53
2019-05-12T02:00:03.188Z,1024.55
2019-05-12T02:01:03.238Z,1024.57
2019-05-12T02:02:03.286Z,1024.57
2019-05-12T02:03:03.341Z,1024.60
2019-05-12T02:04:03.404Z,1024.60
2019-05-12T02:05:03.494Z,1024.58
2019-05-12T02:06:03.530Z,1024.56
2019-05-12T02:07:03.587Z,1024.61
2019-05-12T02:08:03.646Z,1024.57
2019-05-12T02:09:03.706Z,1024.62
2019-05-12T02:10:03.767Z,1024.57
2019-05-12T02:11:03.910Z,1024.62
2019-05-12T02:12:03.887Z,1024.67
2019-05-12T02:13:03.946Z,1024.68
2019-05-12T02:14:04.006Z,1024.72
2019-05-12T02:15:04.072Z,1024.73
2019-05-12T02:16:04.154Z,1024.77
2019-05-12T02:17:04.190Z,1024.75
2019-05-12T02:18:04.250Z,1024.79
2019-05-12T02:19:04.319Z,1024.81
2019-05-12T02:20:04.370Z,1024.83
2019-05-12T02:21:04.438Z,1024.91
2019-05-12T02:22:04.507Z,1024.89
2019-05-12T02:23:04.560Z,1024.94
2019-05-12T02:24:04.616Z,1024.90
2019-05-12T02:25:04.674Z,1024.95
2019-05-12T02:26:04.743Z,1024.98
2019-05-12T02:27:04.815Z,1024.99
2019-05-12T02:28:04.867Z,1024.97
2019-05-12T02:29:04.918Z,1025.00
2019-05-12T02:30:04.980Z,1024.97
2019-05-12T02:31:05.047Z,1024.98
2019-05-12T02:32:05.113Z,1024.95
2019-05-12T02:33:05.441Z,1024.97
2019-05-12T02:34:05.761Z,1024.95
2019-05-12T02:35:05.884Z,1024.96
2019-05-12T02:36:05.347Z,1024.94
2019-05-12T02:37:05.665Z,1024.97
2019-05-12T02:38:05.645Z,1024.98
2019-05-12T02:39:05.564Z,1024.97
2019-05-12T02:40:05.585Z,1025.00
2019-05-12T02:41:05.645Z,1025.05
2019-05-12T02:42:05.723Z,1025.00
2019-05-12T02:43:06.050Z,1025.08
2019-05-12T02:44:05.884Z,1025.08
2019-05-12T02:45:05.934Z,1025.11
2019-05-12T02:46:05.947Z,1025.16
2019-05-12T02:47:06.040Z,1025.13
2019-05-12T02:48:06.088Z,1025.13
2019-05-12T02:49:06.128Z,1025.13
2019-05-12T02:50:06.188Z,1025.16
2019-05-12T02:51:06.254Z,1025.14
2019-05-12T02:52:06.429Z,1025.18
2019-05-12T02:53:06.515Z,1025.19
2019-05-12T02:54:06.433Z,1025.21
2019-05-12T02:55:06.763Z,1025.20
2019-05-12T02:56:06.553Z,1025.22
2019-05-12T02:57:06.620Z,1025.26
2019-05-12T02:58:06.924Z,1025.22
2019-05-12T02:59:06.739Z,1025.22
2019-05-12T03:00:06.800Z,1025.26
2019-05-12T03:01:06.857Z,1025.28
2019-05-12T03:02:06.925Z,1025.24
2019-05-12T03:03:06.984Z,1025.26
2019-05-12T03:04:07.037Z,1025.25
2019-05-12T03:05:07.098Z,1025.30
2019-05-12T03:06:07.161Z,1025.28
2019-05-12T03:07:07.330Z,1025.29
2019-05-12T03:08:07.296Z,1025.35
2019-05-12T03:09:07.402Z,1025.38
2019-05-12T03:10:07.404Z,1025.41
2019-05-12T03:11:07.467Z,1025.41
2019-05-12T03:12:07.530Z,1025.46
2019-05-12T03:13:07.596Z,1025.44
2019-05-12T03:14:07.640Z,1025.49
2019-05-12T03:15:07.711Z,1025.49
2019-05-12T03:16:07.766Z,1025.52
2019-05-12T03:17:07.837Z,1025.51
2019-05-12T03:18:07.907Z,1025.53
2019-05-12T03:19:07.955Z,1025.57
2019-05-12T03:20:08.005Z,1025.56
2019-05-12T03:21:08.067Z,1025.59
2019-05-12T03:22:08.162Z,1025.56
2019-05-12T03:23:08.190Z,1025.57
2019-05-12T03:24:08.251Z,1025.60
2019-05-12T03:25:20.031Z,1025.62
2019-05-12T03:26:08.371Z,1025.62
2019-05-12T03:27:08.441Z,1025.63
2019-05-12T03:28:09.605Z,1025.64
2019-05-12T03:29:08.550Z,1025.68
2019-05-12T03:30:11.790Z,1025.66
2019-05-12T03:31:08.932Z,1025.66
2019-05-12T03:32:08.947Z,1025.70
2019-05-12T03:33:11.555Z,1025.72
2019-05-12T03:34:11.051Z,1025.78
2019-05-12T03:35:09.533Z,1025.79
2019-05-12T03:36:10.287Z,1025.75
2019-05-12T03:37:09.196Z,1025.77
2019-05-12T03:38:09.107Z,1025.76
2019-05-12T03:39:09.256Z,1025.82
2019-05-12T03:40:09.218Z,1025.80
2019-05-12T03:41:09.290Z,1025.83
2019-05-12T03:42:09.348Z,1025.80
2019-05-12T03:43:09.407Z,1025.85
2019-05-12T03:44:09.459Z,1025.85
2019-05-12T03:45:09.522Z,1025.91
2019-05-12T03:46:09.579Z,1025.88
2019-05-12T03:47:09.647Z,1025.89
2019-05-12T03:48:09.715Z,1025.93
2019-05-12T03:49:09.763Z,1025.96
2019-05-12T03:50:09.832Z,1025.98
2019-05-12T03:51:09.883Z,1026.00
2019-05-12T03:52:09.954Z,1026.04
2019-05-12T03:53:11.271Z,1026.03
2019-05-12T03:54:10.064Z,1026.09
2019-05-12T03:55:29.705Z,1026.14
2019-05-12T03:56:10.189Z,1026.09
2019-05-12T03:57:10.348Z,1026.12
2019-05-12T03:58:10.309Z,1026.11
2019-05-12T03:59:10.364Z,1026.13
2019-05-12T04:00:10.425Z,1026.13
2019-05-12T04:01:10.485Z,1026.14
2019-05-12T04:02:10.552Z,1026.16
2019-05-12T04:03:10.612Z,1026.19
2019-05-12T04:04:10.668Z,1026.17
2019-05-12T04:05:10.740Z,1026.19
2019-05-12T04:06:10.787Z,1026.18
2019-05-12T04:07:10.859Z,1026.22
2019-05-12T04:08:10.917Z,1026.30
2019-05-12T04:09:10.970Z,1026.25
2019-05-12T04:10:11.028Z,1026.26
2019-05-12T04:11:14.295Z,1026.28
2019-05-12T04:12:14.576Z,1026.28
2019-05-12T04:13:12.128Z,1026.29
2019-05-12T04:14:14.505Z,1026.29
2019-05-12T04:15:11.328Z,1026.30
2019-05-12T04:16:11.390Z,1026.27
2019-05-12T04:17:14.762Z,1026.30
2019-05-12T04:18:11.526Z,1026.35
2019-05-12T04:19:14.423Z,1026.35
2019-05-12T04:20:14.918Z,1026.42
2019-05-12T04:21:15.243Z,1026.45
2019-05-12T04:22:15.150Z,1026.50
2019-05-12T04:23:14.944Z,1026.52
2019-05-12T04:24:14.261Z,1026.54
2019-05-12T04:25:14.703Z,1026.53
2019-05-12T04:26:16.500Z,1026.57
2019-05-12T04:27:15.049Z,1026.61
2019-05-12T04:28:14.772Z,1026.63
2019-05-12T04:29:15.159Z,1026.64
2019-05-12T04:30:14.550Z,1026.64
2019-05-12T04:31:15.263Z,1026.68
2019-05-12T04:32:14.369Z,1026.65
2019-05-12T04:33:15.602Z,1026.69
2019-05-12T04:34:15.711Z,1026.75
2019-05-12T04:35:14.888Z,1026.75
2019-05-12T04:36:14.810Z,1026.80
2019-05-12T04:37:14.880Z,1026.83
2019-05-12T04:38:15.010Z,1026.86
2019-05-12T04:39:14.675Z,1026.88
2019-05-12T04:40:14.809Z,1026.87
2019-05-12T04:41:14.574Z,1026.94
2019-05-12T04:42:14.914Z,1026.92
2019-05-12T04:43:14.546Z,1026.87
2019-05-12T04:44:15.148Z,1026.91
2019-05-12T04:45:15.670Z,1026.95
2019-05-12T04:46:14.517Z,1026.95
2019-05-12T04:47:14.537Z,1026.88
2019-05-12T04:48:15.479Z,1026.93
2019-05-12T04:49:15.837Z,1026.90
2019-05-12T04:50:15.635Z,1026.94
2019-05-12T04:51:15.389Z,1026.97
2019-05-12T04:52:15.594Z,1026.98
2019-05-12T04:53:14.443Z,1027.02
2019-05-12T04:54:15.200Z,1027.01
2019-05-12T04:55:15.023Z,1027.02
2019-05-12T04:56:19.902Z,1027.02
2019-05-12T04:57:14.995Z,1027.04
2019-05-12T04:58:15.816Z,1027.11
2019-05-12T04:59:15.662Z,1027.08
2019-05-12T05:00:15.685Z,1027.11
2019-05-12T05:01:15.537Z,1027.18
2019-05-12T05:02:15.276Z,1027.18
2019-05-12T05:03:14.537Z,1027.21
2019-05-12T05:04:15.483Z,1027.23
2019-05-12T05:05:14.667Z,1027.21
2019-05-12T05:06:15.024Z,1027.22
2019-05-12T05:07:15.153Z,1027.22
2019-05-12T05:08:19.176Z,1027.25
2019-05-12T05:09:14.745Z,1027.30
2019-05-12T05:10:14.813Z,1027.25
2019-05-12T05:11:14.970Z,1027.29
2019-05-12T05:12:14.800Z,1027.29
2019-05-12T05:13:15.219Z,1027.31
2019-05-12T05:14:14.916Z,1027.37
2019-05-12T05:15:14.972Z,1027.38
2019-05-12T05:16:15.036Z,1027.39
2019-05-12T05:17:15.178Z,1027.38
2019-05-12T05:18:15.155Z,1027.46
2019-05-12T05:19:15.220Z,1027.47
2019-05-12T05:20:15.279Z,1027.51
2019-05-12T05:21:15.340Z,1027.57
2019-05-12T05:22:15.407Z,1027.60
2019-05-12T05:23:15.472Z,1027.63
2019-05-12T05:24:15.523Z,1027.66
2019-05-12T05:25:15.584Z,1027.70
2019-05-12T05:26:24.545Z,1027.68
2019-05-12T05:27:15.715Z,1027.68
2019-05-12T05:28:15.775Z,1027.69
2019-05-12T05:29:15.832Z,1027.67
2019-05-12T05:30:15.892Z,1027.68
2019-05-12T05:31:15.956Z,1027.73
2019-05-12T05:32:16.025Z,1027.75
2019-05-12T05:33:16.084Z,1027.71
2019-05-12T05:34:16.819Z,1027.72
2019-05-12T05:35:16.204Z,1027.77
2019-05-12T05:36:19.781Z,1027.77
2019-05-12T05:37:16.329Z,1027.74
2019-05-12T05:38:20.503Z,1027.79
2019-05-12T05:39:16.448Z,1027.85
2019-05-12T05:40:19.762Z,1027.80
2019-05-12T05:41:16.569Z,1027.83
2019-05-12T05:42:16.643Z,1027.87
2019-05-12T05:43:18.389Z,1027.90
2019-05-12T05:44:16.757Z,1027.92
2019-05-12T05:45:22.133Z,1027.95
2019-05-12T05:46:16.878Z,1027.92
2019-05-12T05:47:19.785Z,1027.97
2019-05-12T05:48:17.009Z,1027.95
2019-05-12T05:49:17.061Z,1028.01
2019-05-12T05:50:18.463Z,1027.98
2019-05-12T05:51:17.190Z,1028.04
2019-05-12T05:52:17.457Z,1028.06
2019-05-12T05:53:19.541Z,1028.06
2019-05-12T05:54:17.369Z,1028.06
2019-05-12T05:55:20.145Z,1028.09
2019-05-12T05:56:18.386Z,1028.05
2019-05-12T05:57:20.177Z,1028.05
2019-05-12T05:58:17.630Z,1028.08
2019-05-12T05:59:24.137Z,1028.12
2019-05-12T06:00:23.237Z,1028.11
2019-05-12T06:01:17.802Z,1028.14
2019-05-12T06:02:25.578Z,1028.16
2019-05-12T06:03:26.149Z,1028.16
2019-05-12T06:04:17.990Z,1028.16
2019-05-12T06:05:19.897Z,1028.16
2019-05-12T06:06:18.115Z,1028.15
2019-05-12T06:07:23.845Z,1028.14
2019-05-12T06:08:20.706Z,1028.14
2019-05-12T06:09:18.298Z,1028.12
2019-05-12T06:10:18.365Z,1028.18
2019-05-12T06:11:23.813Z,1028.15
2019-05-12T06:12:18.490Z,1028.13
2019-05-12T06:13:21.311Z,1028.14
2019-05-12T06:14:18.607Z,1028.18
2019-05-12T06:15:18.670Z,1028.21
2019-05-12T06:16:20.815Z,1028.22
2019-05-12T06:17:18.801Z,1028.25
2019-05-12T06:18:18.870Z,1028.27
2019-05-12T06:19:18.918Z,1028.26
2019-05-12T06:20:18.984Z,1028.33
2019-05-12T06:21:19.042Z,1028.35
2019-05-12T06:22:19.286Z,1028.34
2019-05-12T06:23:19.170Z,1028.42
2019-05-12T06:24:20.249Z,1028.39
2019-05-12T06:25:19.296Z,1028.53
2019-05-12T06:26:21.110Z,1028.62
2019-05-12T06:27:21.038Z,1028.70
2019-05-12T06:28:19.488Z,1028.74
2019-05-12T06:29:21.811Z,1028.82
2019-05-12T06:30:19.603Z,1028.76
2019-05-12T06:31:25.249Z,1028.75
2019-05-12T06:32:19.739Z,1028.80
2019-05-12T06:33:22.841Z,1028.79
2019-05-12T06:34:21.070Z,1028.79
2019-05-12T06:35:19.916Z,1028.76
2019-05-12T06:36:21.926Z,1028.75
2019-05-12T06:37:20.052Z,1028.77
2019-05-12T06:38:20.113Z,1028.78
2019-05-12T06:39:20.887Z,1028.77
2019-05-12T06:40:20.232Z,1028.79
2019-05-12T06:41:21.404Z,1028.81
2019-05-12T06:42:20.363Z,1028.84
2019-05-12T06:43:20.427Z,1028.85
2019-05-12T06:44:20.483Z,1028.91
2019-05-12T06:45:20.552Z,1029.08
2019-05-12T06:46:23.183Z,1029.00
2019-05-12T06:47:20.697Z,1029.15
2019-05-12T06:48:28.438Z,1029.17
2019-05-12T06:49:20.800Z,1029.09
2019-05-12T06:50:20.863Z,1029.05
2019-05-12T06:51:23.732Z,1028.95
2019-05-12T06:52:20.997Z,1028.93
2019-05-12T06:53:26.525Z,1028.95
2019-05-12T06:54:21.116Z,1028.99
2019-05-12T06:55:23.699Z,1029.08
2019-05-12T06:56:23.458Z,1029.67
2019-05-12T06:57:26.176Z,1029.80
2019-05-12T06:58:29.627Z,1030.83
2019-05-12T06:59:23.626Z,1030.84
2019-05-12T07:00:22.206Z,1030.31
2019-05-12T07:01:24.007Z,1031.10
2019-05-12T07:02:24.320Z,1029.47
2019-05-12T07:03:26.157Z,1029.74
2019-05-12T07:04:23.979Z,1029.33
2019-05-12T07:05:23.295Z,1030.70
2019-05-12T07:06:21.896Z,1030.51
2019-05-12T07:07:25.615Z,1030.33
2019-05-12T07:08:27.509Z,1031.12
2019-05-12T07:09:25.009Z,1031.11
2019-05-12T07:10:38.517Z,1031.04
2019-05-12T07:11:24.249Z,1031.07
2019-05-12T07:12:24.947Z,1030.86
2019-05-12T07:13:27.210Z,1030.91
2019-05-12T07:14:26.965Z,1030.91
2019-05-12T07:15:23.380Z,1030.81
2019-05-12T07:16:29.754Z,1030.77
2019-05-12T07:17:23.898Z,1030.74
2019-05-12T07:18:24.448Z,1029.23
2019-05-12T07:19:25.500Z,1030.69
2019-05-12T07:20:24.037Z,1030.64
2019-05-12T07:21:26.499Z,1030.77
2019-05-12T07:22:25.803Z,1030.70
2019-05-12T07:23:25.836Z,1029.58
2019-05-12T07:24:23.870Z,1029.32
2019-05-12T07:25:31.285Z,1029.31
2019-05-12T07:26:23.566Z,1029.22
2019-05-12T07:27:35.762Z,1029.31
2019-05-12T07:28:23.818Z,1029.29
2019-05-12T07:29:23.928Z,1029.23
2019-05-12T07:30:24.039Z,1029.24
2019-05-12T07:31:23.650Z,1029.27
2019-05-12T07:32:24.600Z,1029.32
2019-05-12T07:33:23.794Z,1029.35
2019-05-12T07:34:24.140Z,1029.31
2019-05-12T07:35:24.065Z,1029.86
2019-05-12T07:36:24.337Z,1029.31
2019-05-12T07:37:24.067Z,1029.94
2019-05-12T07:38:25.969Z,1030.47
2019-05-12T07:39:24.274Z,1029.70
2019-05-12T07:40:29.733Z,1029.40
2019-05-12T07:41:24.326Z,1029.33
2019-05-12T07:42:31.543Z,1029.34
2019-05-12T07:43:24.462Z,1029.40
2019-05-12T07:44:25.224Z,1029.25
2019-05-12T07:45:25.319Z,1029.25
2019-05-12T07:46:27.836Z,1029.26
2019-05-12T07:47:29.217Z,1029.29
2019-05-12T07:48:24.799Z,1029.30
2019-05-12T07:49:34.363Z,1029.30
2019-05-12T07:50:27.336Z,1029.48
2019-05-12T07:51:24.991Z,1030.13
2019-05-12T07:52:25.067Z,1029.22
2019-05-12T07:53:25.127Z,1029.17
2019-05-12T07:54:29.467Z,1029.22
2019-05-12T07:55:25.252Z,1029.27
2019-05-12T07:56:32.360Z,1029.20
2019-05-12T07:57:25.391Z,1029.34
2019-05-12T07:58:25.460Z,1029.36
2019-05-12T07:59:28.289Z,1029.37
2019-05-12T08:00:25.858Z,1029.46
2019-05-12T08:01:25.645Z,1029.58
2019-05-12T08:02:31.679Z,1030.05
2019-05-12T08:03:25.779Z,1030.20
2019-05-12T08:04:25.841Z,1029.97
2019-05-12T08:05:25.909Z,1029.99
2019-05-12T08:06:25.968Z,1030.27
2019-05-12T08:07:29.813Z,1030.29
2019-05-12T08:08:26.109Z,1030.40
2019-05-12T08:09:32.491Z,1030.38
2019-05-12T08:10:26.236Z,1030.24
2019-05-12T08:11:28.914Z,1030.36
2019-05-12T08:12:26.388Z,1030.41
2019-05-12T08:13:31.267Z,1030.11
2019-05-12T08:14:29.327Z,1029.59
2019-05-12T08:15:26.580Z,1029.59
2019-05-12T08:16:30.219Z,1029.62
2019-05-12T08:17:26.724Z,1029.63
2019-05-12T08:18:30.673Z,1029.60
2019-05-12T08:19:28.570Z,1029.61
2019-05-12T08:20:26.925Z,1029.55
2019-05-12T08:21:26.992Z,1029.58
2019-05-12T08:22:29.266Z,1029.57
2019-05-12T08:23:27.133Z,1029.58
2019-05-12T08:24:27.196Z,1029.56
2019-05-12T08:25:28.778Z,1029.55
2019-05-12T08:26:27.329Z,1029.59
2019-05-12T08:27:27.402Z,1029.52
2019-05-12T08:28:34.917Z,1029.52
2019-05-12T08:29:27.526Z,1029.55
2019-05-12T08:30:27.597Z,1029.56
2019-05-12T08:31:33.160Z,1029.55
2019-05-12T08:32:27.743Z,1029.58
2019-05-12T08:33:27.807Z,1029.56
2019-05-12T08:34:27.862Z,1029.58
2019-05-12T08:35:34.793Z,1029.53
2019-05-12T08:36:27.995Z,1029.55
2019-05-12T08:37:28.066Z,1029.49
2019-05-12T08:38:28.130Z,1029.56
2019-05-12T08:39:28.194Z,1029.93
2019-05-12T08:40:28.258Z,1029.56
2019-05-12T08:41:28.322Z,1029.54
2019-05-12T08:42:28.398Z,1029.53
2019-05-12T08:43:28.450Z,1029.53
2019-05-12T08:44:33.871Z,1029.53
2019-05-12T08:45:34.128Z,1029.59
2019-05-12T08:46:28.646Z,1029.92
2019-05-12T08:47:33.823Z,1029.91
2019-05-12T08:48:28.787Z,1029.58
2019-05-12T08:49:34.021Z,1029.95
2019-05-12T08:50:31.571Z,1029.93
2019-05-12T08:51:28.979Z,1029.96
2019-05-12T08:52:30.767Z,1029.59
2019-05-12T08:53:29.114Z,1030.00
2019-05-12T08:54:29.255Z,1029.95
2019-05-12T08:55:31.438Z,1029.97
2019-05-12T08:56:29.304Z,1030.00
2019-05-12T08:57:34.915Z,1030.00
2019-05-12T08:58:34.270Z,1029.95
2019-05-12T08:59:29.502Z,1029.70
2019-05-12T09:00:29.571Z,1030.03
2019-05-12T09:01:30.940Z,1029.88
2019-05-12T09:02:29.712Z,1029.71
2019-05-12T09:03:30.535Z,1029.65
2019-05-12T09:04:29.840Z,1029.66
2019-05-12T09:05:34.471Z,1029.60
2019-05-12T09:06:29.976Z,1029.66
2019-05-12T09:07:34.593Z,1029.66
2019-05-12T09:08:30.120Z,1029.79
2019-05-12T09:09:30.175Z,1029.97
2019-05-12T09:10:30.245Z,1029.95
2019-05-12T09:11:30.312Z,1029.97
2019-05-12T09:12:30.463Z,1029.84
2019-05-12T09:13:30.439Z,1029.90
2019-05-12T09:14:33.512Z,1029.98
2019-05-12T09:15:30.575Z,1029.92
2019-05-12T09:16:30.659Z,1029.99
2019-05-12T09:17:30.719Z,1030.02
2019-05-12T09:18:35.049Z,1029.89
2019-05-12T09:19:33.076Z,1029.97
2019-05-12T09:20:33.060Z,1029.89
2019-05-12T09:21:32.053Z,1029.92
2019-05-12T09:22:31.056Z,1029.85
2019-05-12T09:23:32.872Z,1029.91
2019-05-12T09:24:31.192Z,1029.85
2019-05-12T09:25:31.296Z,1029.88
2019-05-12T09:26:31.321Z,1029.82
2019-05-12T09:27:33.346Z,1029.88
2019-05-12T09:28:44.354Z,1029.81
2019-05-12T09:29:31.527Z,1029.90
2019-05-12T09:30:33.580Z,1030.07
2019-05-12T09:31:33.586Z,1029.98
2019-05-12T09:32:33.881Z,1029.91
2019-05-12T09:33:34.501Z,1029.93
2019-05-12T09:34:33.570Z,1029.91
2019-05-12T09:35:34.895Z,1029.86
2019-05-12T09:36:33.868Z,1029.91
2019-05-12T09:37:38.648Z,1029.92
2019-05-12T09:38:33.256Z,1029.91
2019-05-12T09:39:34.077Z,1029.92
2019-05-12T09:40:32.282Z,1029.78
2019-05-12T09:41:34.355Z,1029.87
2019-05-12T09:42:33.449Z,1029.87
2019-05-12T09:43:34.393Z,1029.94
2019-05-12T09:44:34.095Z,1029.78
2019-05-12T09:45:33.397Z,1029.79
2019-05-12T09:46:34.296Z,1029.84
2019-05-12T09:47:34.324Z,1029.87
2019-05-12T09:48:33.496Z,1029.90
2019-05-12T09:49:39.020Z,1030.09
2019-05-12T09:50:34.092Z,1029.89
2019-05-12T09:51:41.336Z,1029.87
2019-05-12T09:52:33.473Z,1029.96
2019-05-12T09:53:34.119Z,1029.93
2019-05-12T09:54:39.964Z,1030.10
2019-05-12T09:55:34.317Z,1030.08
2019-05-12T09:56:34.170Z,1030.08
2019-05-12T09:57:40.566Z,1030.05
2019-05-12T09:58:33.797Z,1030.04
2019-05-12T09:59:33.727Z,1030.04
2019-05-12T10:00:35.772Z,1030.04
2019-05-12T10:01:35.380Z,1030.00
2019-05-12T10:02:33.776Z,1030.03
2019-05-12T10:03:38.818Z,1029.97
2019-05-12T10:04:33.906Z,1030.07
2019-05-12T10:05:37.549Z,1030.00
2019-05-12T10:06:34.143Z,1030.01
2019-05-12T10:07:34.119Z,1029.98
2019-05-12T10:08:35.708Z,1030.05
2019-05-12T10:09:34.242Z,1030.08
2019-05-12T10:10:38.958Z,1030.07
2019-05-12T10:11:34.382Z,1029.99
2019-05-12T10:12:38.669Z,1030.03
2019-05-12T10:13:34.521Z,1030.04
2019-05-12T10:14:34.594Z,1030.04
2019-05-12T10:15:34.647Z,1030.02
2019-05-12T10:16:39.327Z,1030.03
2019-05-12T10:17:34.791Z,1030.08
2019-05-12T10:18:34.862Z,1030.00
2019-05-12T10:19:34.921Z,1030.15
2019-05-12T10:20:39.577Z,1030.20
2019-05-12T10:21:35.998Z,1030.14
2019-05-12T10:22:39.750Z,1030.19
2019-05-12T10:23:35.187Z,1030.16
2019-05-12T10:24:41.399Z,1030.04
2019-05-12T10:25:35.328Z,1030.08
2019-05-12T10:26:35.391Z,1030.07
2019-05-12T10:27:35.510Z,1030.17
2019-05-12T10:28:35.535Z,1030.05
2019-05-12T10:29:35.591Z,1030.09
2019-05-12T10:30:35.660Z,1030.15
2019-05-12T10:31:39.251Z,1030.17
2019-05-12T10:32:35.800Z,1030.09
2019-05-12T10:33:35.869Z,1030.07
2019-05-12T10:34:40.292Z,1030.10
2019-05-12T10:35:35.998Z,1030.06
2019-05-12T10:36:39.138Z,1030.08
2019-05-12T10:37:36.151Z,1030.07
2019-05-12T10:38:36.200Z,1030.12
2019-05-12T10:39:36.261Z,1030.01
2019-05-12T10:40:36.340Z,1030.06
2019-05-12T10:41:36.396Z,1030.06
2019-05-12T10:42:39.882Z,1030.11
2019-05-12T10:43:36.540Z,1030.11
2019-05-12T10:44:40.723Z,1030.13
2019-05-12T10:45:36.660Z,1030.08
2019-05-12T10:46:36.732Z,1030.07
2019-05-12T10:47:36.806Z,1030.11
2019-05-12T10:48:36.873Z,1030.10
2019-05-12T10:49:36.928Z,1030.03
2019-05-12T10:50:36.998Z,1030.04
2019-05-12T10:51:37.066Z,1030.04
2019-05-12T10:52:39.001Z,1030.08
2019-05-12T10:53:37.200Z,1030.14
2019-05-12T10:54:37.265Z,1030.07
2019-05-12T10:55:37.329Z,1030.08
2019-05-12T10:56:37.394Z,1029.99
2019-05-12T10:57:37.469Z,1029.99
2019-05-12T10:58:37.537Z,1030.09
2019-05-12T10:59:38.860Z,1030.05
2019-05-12T11:00:37.661Z,1030.06
2019-05-12T11:01:38.596Z,1030.05
2019-05-12T11:02:37.801Z,1030.02
2019-05-12T11:03:42.957Z,1030.10
2019-05-12T11:04:41.121Z,1030.05
2019-05-12T11:05:37.989Z,1030.10
2019-05-12T11:06:39.750Z,1030.01
2019-05-12T11:07:38.250Z,1030.07
2019-05-12T11:08:41.393Z,1030.06
2019-05-12T11:09:38.341Z,1030.06
2019-05-12T11:10:38.350Z,1030.03
2019-05-12T11:11:42.361Z,1030.02
2019-05-12T11:12:38.458Z,1030.01
2019-05-12T11:13:40.227Z,1029.96
2019-05-12T11:14:38.587Z,1029.93
2019-05-12T11:15:39.423Z,1029.98
2019-05-12T11:16:41.783Z,1030.00
2019-05-12T11:17:40.231Z,1029.99
2019-05-12T11:18:38.854Z,1029.99
2019-05-12T11:19:40.886Z,1029.96
2019-05-12T11:20:38.982Z,1029.95
2019-05-12T11:21:39.046Z,1029.95
2019-05-12T11:22:39.203Z,1030.00
2019-05-12T11:23:39.179Z,1030.03
2019-05-12T11:24:39.246Z,1030.04
2019-05-12T11:25:39.310Z,1030.04
2019-05-12T11:26:39.378Z,1030.05
2019-05-12T11:27:39.450Z,1030.05
2019-05-12T11:28:39.518Z,1030.05
2019-05-12T11:29:46.307Z,1030.05
2019-05-12T11:30:39.647Z,1030.05
2019-05-12T11:31:39.710Z,1030.03
2019-05-12T11:32:39.787Z,1030.00
2019-05-12T11:33:39.846Z,1030.06
2019-05-12T11:34:39.907Z,1030.03
2019-05-12T11:35:39.974Z,1030.02
2019-05-12T11:36:40.038Z,1030.09
2019-05-12T11:37:40.127Z,1030.07
2019-05-12T11:38:40.171Z,1030.10
2019-05-12T11:39:44.616Z,1030.05
2019-05-12T11:40:40.307Z,1030.08
2019-05-12T11:41:40.376Z,1030.13
2019-05-12T11:42:40.444Z,1030.17
2019-05-12T11:43:40.510Z,1030.21
2019-05-12T11:44:40.579Z,1030.19
2019-05-12T11:45:40.631Z,1030.22
2019-05-12T11:46:40.700Z,1030.17
2019-05-12T11:47:40.775Z,1030.17
2019-05-12T11:48:46.364Z,1030.12
2019-05-12T11:49:40.903Z,1030.13
2019-05-12T11:50:48.752Z,1030.18
2019-05-12T11:51:41.032Z,1030.11
2019-05-12T11:52:45.968Z,1030.15
2019-05-12T11:53:41.164Z,1030.12
2019-05-12T11:54:46.429Z,1030.14
2019-05-12T11:55:43.550Z,1030.14
2019-05-12T11:56:46.532Z,1030.19
2019-05-12T11:57:43.660Z,1030.17
2019-05-12T11:58:46.568Z,1030.15
2019-05-12T11:59:43.478Z,1030.19
2019-05-12T12:00:43.949Z,1030.13
2019-05-12T12:01:45.604Z,1030.18
2019-05-12T12:02:43.699Z,1030.15
2019-05-12T12:03:43.950Z,1030.13
2019-05-12T12:04:43.513Z,1030.09
2019-05-12T12:05:43.727Z,1030.14
2019-05-12T12:06:43.861Z,1030.10